Time;durP1;ratioP1;P1;durP2;ratioP2;P2;SDS_P1;SDS_P2;PMS_P1;PMS_P2;Temp;Humidity;BMP_temperature;BMP_pressure;BME280_temperature;BME280_humidity;BME280_pressure;Samples;Min_cycle;Max_cycle;Signal;HPM_P1;HPM_P2
2022/03/02 00:01:21;;;;;;;;;;;20.20;36.80;;;;;;5091498;28;19920;-45
2022/03/02 00:03:51;;;;;;;;;;;20.20;36.80;;;;;;5090405;28;19923;-45
2022/03/02 00:06:18;;;;;;;;;;;20.10;36.70;;;;;;5110200;28;19965;-44
2022/03/02 00:08:45;;;;;;;;;;;20.20;37.40;;;;;;5090638;28;19920;-44
2022/03/02 00:11:12;;;;;;;;;;;20.20;36.80;;;;;;5077211;28;19959;-48
2022/03/02 00:13:49;;;;;;;;;;;20.20;36.80;;;;;;5072418;28;19924;-45
2022/03/02 00:16:17;;;;;;;;;;;20.20;36.80;;;;;;5093895;28;19928;-45
2022/03/02 00:18:44;;;;;;;;;;;20.10;36.70;;;;;;5093123;28;20417;-44
2022/03/02 00:21:13;;;;;;;;;;;20.20;36.90;;;;;;5125445;27;19962;-45
2022/03/02 00:23:40;;;;;;;;;;;20.20;36.90;;;;;;5108898;28;19920;-44
2022/03/02 00:26:07;;;;;;;;;;;20.20;36.80;;;;;;5109258;27;19924;-46
2022/03/02 00:28:33;;;;;;;;;;;20.20;36.90;;;;;;5094510;28;19924;-47
2022/03/02 00:31:00;;;;;;;;;;;20.10;36.80;;;;;;5108972;28;20365;-44
2022/03/02 00:33:27;;;;;;;;;;;20.20;36.90;;;;;;5070150;28;19959;-45
2022/03/02 00:35:54;;;;;;;;;;;20.20;36.90;;;;;;5073413;28;19998;-44
2022/03/02 00:38:22;;;;;;;;;;;20.20;36.90;;;;;;5088822;28;20037;-44
2022/03/02 00:40:49;;;;;;;;;;;20.20;36.90;;;;;;5088858;28;20264;-45
2022/03/02 00:43:16;;;;;;;;;;;20.10;36.80;;;;;;5074395;28;19930;-48
2022/03/02 00:45:44;;;;;;;;;;;20.20;36.90;;;;;;5103951;27;19920;-42
2022/03/02 00:48:11;;;;;;;;;;;20.20;36.90;;;;;;5070192;28;19927;-44
2022/03/02 00:50:38;;;;;;;;;;;20.20;36.90;;;;;;5083328;28;19920;-43
2022/03/02 00:53:07;;;;;;;;;;;20.20;36.90;;;;;;5107932;28;19919;-44
2022/03/02 00:55:35;;;;;;;;;;;20.20;37.00;;;;;;5090598;28;19963;-43
2022/03/02 00:58:02;;;;;;;;;;;20.20;36.90;;;;;;5075694;28;19932;-42
2022/03/02 01:00:29;;;;;;;;;;;20.20;37.00;;;;;;5078908;28;20015;-42
2022/03/02 01:02:55;;;;;;;;;;;20.10;36.80;;;;;;5108145;28;19931;-45
2022/03/02 01:05:22;;;;;;;;;;;20.20;37.00;;;;;;5077868;28;19946;-44
2022/03/02 01:07:48;;;;;;;;;;;20.10;36.90;;;;;;5090344;28;19923;-50
2022/03/02 01:10:16;;;;;;;;;;;20.20;37.00;;;;;;5108648;28;20271;-44
2022/03/02 01:12:44;;;;;;;;;;;20.20;37.00;;;;;;5078171;28;20318;-43
2022/03/02 01:15:11;;;;;;;;;;;20.20;37.00;;;;;;5071100;28;19920;-43
2022/03/02 01:17:40;;;;;;;;;;;20.20;37.00;;;;;;5087870;28;19927;-45
2022/03/02 01:20:08;;;;;;;;;;;20.10;36.90;;;;;;5106752;27;20376;-45
2022/03/02 01:22:35;;;;;;;;;;;20.20;37.00;;;;;;5090047;28;19926;-45
2022/03/02 01:25:02;;;;;;;;;;;20.10;36.90;;;;;;5077461;28;20048;-43
2022/03/02 01:27:29;;;;;;;;;;;20.20;37.00;;;;;;5108653;28;19920;-43
2022/03/02 01:30:00;;;;;;;;;;;20.10;36.90;;;;;;5080882;28;19930;-43
2022/03/02 01:32:27;;;;;;;;;;;20.10;37.00;;;;;;5101319;28;19938;-45
2022/03/02 01:34:53;;;;;;;;;;;20.10;36.90;;;;;;5071127;28;19930;-44
2022/03/02 01:37:20;;;;;;;;;;;20.10;36.90;;;;;;5090344;28;19929;-42
2022/03/02 01:39:48;;;;;;;;;;;20.20;37.00;;;;;;5110207;27;20038;-48
2022/03/02 01:42:15;;;;;;;;;;;20.10;37.00;;;;;;5087687;28;19974;-44
2022/03/02 01:44:41;;;;;;;;;;;20.10;37.00;;;;;;5085674;28;19920;-45
2022/03/02 01:47:09;;;;;;;;;;;20.20;37.10;;;;;;5106694;28;19924;-47
2022/03/02 01:49:38;;;;;;;;;;;20.10;37.00;;;;;;5089599;28;19969;-44
2022/03/02 01:52:05;;;;;;;;;;;20.10;37.00;;;;;;5089650;28;19951;-44
2022/03/02 01:54:31;;;;;;;;;;;20.20;37.00;;;;;;5089216;28;20261;-46
2022/03/02 01:56:59;;;;;;;;;;;20.20;37.00;;;;;;5083679;28;19924;-44
2022/03/02 01:59:26;;;;;;;;;;;20.10;37.00;;;;;;5069760;28;19920;-44
2022/03/02 02:01:53;;;;;;;;;;;20.10;37.00;;;;;;5085174;28;20030;-46
2022/03/02 02:04:22;;;;;;;;;;;20.10;37.00;;;;;;5075379;28;19927;-43
2022/03/02 02:06:49;;;;;;;;;;;20.20;37.10;;;;;;5084672;28;19920;-43
2022/03/02 02:09:15;;;;;;;;;;;20.10;37.00;;;;;;5089395;28;19920;-45
2022/03/02 02:11:42;;;;;;;;;;;20.10;37.00;;;;;;5083047;28;19920;-43
2022/03/02 02:14:09;;;;;;;;;;;20.20;37.10;;;;;;5070223;28;20349;-46
2022/03/02 02:16:35;;;;;;;;;;;20.20;37.10;;;;;;5084089;28;20376;-44
2022/03/02 02:19:02;;;;;;;;;;;20.10;37.00;;;;;;5089335;28;19928;-45
2022/03/02 02:21:30;;;;;;;;;;;20.20;37.10;;;;;;5105225;27;19964;-47
2022/03/02 02:23:57;;;;;;;;;;;20.20;37.10;;;;;;5088873;28;20018;-47
2022/03/02 02:26:25;;;;;;;;;;;20.20;37.10;;;;;;5088222;28;19924;-46
2022/03/02 02:28:51;;;;;;;;;;;20.10;37.00;;;;;;5088696;28;19920;-44
2022/03/02 02:31:20;;;;;;;;;;;20.10;37.00;;;;;;5087740;28;20253;-46
2022/03/02 02:33:47;;;;;;;;;;;20.20;37.10;;;;;;5089657;28;19920;-45
2022/03/02 02:36:13;;;;;;;;;;;20.20;37.10;;;;;;5078269;28;19923;-46
2022/03/02 02:38:41;;;;;;;;;;;20.10;37.00;;;;;;5088759;28;20482;-45
2022/03/02 02:41:08;;;;;;;;;;;20.10;37.00;;;;;;5077796;28;20341;-44
2022/03/02 02:43:35;;;;;;;;;;;20.10;37.00;;;;;;5088200;28;19919;-44
2022/03/02 02:46:02;;;;;;;;;;;20.20;37.10;;;;;;5088174;28;19920;-45
2022/03/02 02:48:29;;;;;;;;;;;20.20;37.10;;;;;;5106837;28;19981;-46
2022/03/02 02:50:55;;;;;;;;;;;20.10;37.00;;;;;;5088399;28;19920;-42
2022/03/02 02:53:22;;;;;;;;;;;20.20;37.10;;;;;;5085317;28;19920;-43
2022/03/02 02:55:50;;;;;;;;;;;20.10;37.10;;;;;;5088969;28;19919;-48
2022/03/02 02:58:17;;;;;;;;;;;20.10;37.10;;;;;;5096080;28;19931;-45
2022/03/02 03:00:44;;;;;;;;;;;20.20;37.20;;;;;;5089259;28;19920;-44
2022/03/02 03:03:11;;;;;;;;;;;20.10;37.10;;;;;;5107112;28;19924;-45
2022/03/02 03:05:37;;;;;;;;;;;20.10;37.10;;;;;;5105128;28;20342;-48
2022/03/02 03:08:05;;;;;;;;;;;20.10;37.10;;;;;;5102442;28;19982;-43
2022/03/02 03:10:32;;;;;;;;;;;20.10;37.10;;;;;;5088757;28;19920;-44
2022/03/02 03:13:01;;;;;;;;;;;20.10;37.10;;;;;;5091156;28;19923;-43
2022/03/02 03:15:28;;;;;;;;;;;20.10;37.10;;;;;;5086108;28;19935;-49
2022/03/02 03:17:54;;;;;;;;;;;20.10;37.10;;;;;;5091600;28;19931;-43
2022/03/02 03:20:22;;;;;;;;;;;20.10;37.10;;;;;;5104269;28;19934;-45
2022/03/02 03:22:51;;;;;;;;;;;20.10;37.10;;;;;;5105828;28;19931;-44
2022/03/02 03:25:17;;;;;;;;;;;20.10;37.10;;;;;;5092483;28;20401;-46
2022/03/02 03:27:44;;;;;;;;;;;20.10;37.10;;;;;;5078950;28;19926;-44
2022/03/02 03:30:13;;;;;;;;;;;20.10;37.10;;;;;;5093309;28;19923;-44
2022/03/02 03:32:39;;;;;;;;;;;20.10;37.20;;;;;;5087727;28;20010;-44
2022/03/02 03:35:06;;;;;;;;;;;20.10;37.10;;;;;;5097908;28;20365;-48
2022/03/02 03:37:33;;;;;;;;;;;20.10;37.10;;;;;;5088616;28;19931;-45
2022/03/02 03:40:00;;;;;;;;;;;20.20;37.20;;;;;;5125687;27;19924;-47
2022/03/02 03:42:27;;;;;;;;;;;20.10;37.10;;;;;;5090599;28;19924;-47
2022/03/02 03:44:54;;;;;;;;;;;20.10;37.10;;;;;;5091503;28;19920;-47
2022/03/02 03:47:22;;;;;;;;;;;20.10;37.10;;;;;;5111862;27;19920;-46
2022/03/02 03:49:49;;;;;;;;;;;20.10;37.20;;;;;;5096642;28;19997;-48
2022/03/02 03:52:16;;;;;;;;;;;20.20;37.30;;;;;;5085415;28;19926;-47
2022/03/02 03:54:42;;;;;;;;;;;20.10;37.20;;;;;;5090674;28;20452;-49
2022/03/02 03:57:09;;;;;;;;;;;20.10;37.20;;;;;;5096076;28;19924;-48
2022/03/02 03:59:36;;;;;;;;;;;20.10;37.20;;;;;;5103200;28;19927;-50
2022/03/02 04:02:02;;;;;;;;;;;20.10;37.20;;;;;;5116420;27;19951;-45
2022/03/02 04:04:30;;;;;;;;;;;20.10;37.20;;;;;;5100286;28;19920;-45
2022/03/02 04:06:59;;;;;;;;;;;20.10;37.20;;;;;;5109015;28;20272;-48
2022/03/02 04:09:26;;;;;;;;;;;20.10;37.20;;;;;;5090350;28;19919;-44
2022/03/02 04:11:53;;;;;;;;;;;20.10;37.20;;;;;;5080829;28;19919;-44
2022/03/02 04:14:19;;;;;;;;;;;20.10;37.20;;;;;;5096131;28;19957;-46
2022/03/02 04:16:46;;;;;;;;;;;20.10;37.20;;;;;;5108977;28;20383;-43
2022/03/02 04:19:13;;;;;;;;;;;20.10;37.20;;;;;;5092078;28;20391;-43
2022/03/02 04:21:41;;;;;;;;;;;20.10;37.20;;;;;;5104850;28;19966;-43
2022/03/02 04:24:08;;;;;;;;;;;20.10;37.20;;;;;;5075680;28;19968;-43
2022/03/02 04:26:35;;;;;;;;;;;20.10;37.20;;;;;;5090815;28;19919;-43
2022/03/02 04:29:01;;;;;;;;;;;20.10;37.20;;;;;;5089149;28;20069;-43
2022/03/02 04:31:30;;;;;;;;;;;20.10;37.20;;;;;;5108330;28;19986;-46
2022/03/02 04:33:57;;;;;;;;;;;20.10;37.20;;;;;;5084425;28;19950;-48
2022/03/02 04:36:25;;;;;;;;;;;20.10;37.20;;;;;;5086534;28;19930;-45
2022/03/02 04:38:53;;;;;;;;;;;20.10;37.20;;;;;;5090688;28;20336;-43
2022/03/02 04:41:20;;;;;;;;;;;20.10;37.20;;;;;;5073295;28;19930;-46
2022/03/02 04:43:47;;;;;;;;;;;20.10;37.30;;;;;;5084695;28;20037;-43
2022/03/02 04:46:14;;;;;;;;;;;20.10;37.30;;;;;;5089091;28;19927;-44
2022/03/02 04:48:41;;;;;;;;;;;20.10;37.20;;;;;;5091109;28;19920;-44
2022/03/02 04:51:07;;;;;;;;;;;20.10;37.30;;;;;;5089893;28;19919;-44
2022/03/02 04:53:34;;;;;;;;;;;20.10;37.30;;;;;;5079049;28;19927;-43
2022/03/02 04:56:02;;;;;;;;;;;20.10;37.30;;;;;;5084643;28;19935;-43
2022/03/02 04:58:29;;;;;;;;;;;20.10;37.30;;;;;;5108025;28;19924;-43
2022/03/02 05:00:59;;;;;;;;;;;20.10;37.30;;;;;;5108675;28;20018;-44
2022/03/02 05:03:25;;;;;;;;;;;20.10;37.40;;;;;;5086780;28;19966;-43
2022/03/02 05:05:52;;;;;;;;;;;20.10;37.30;;;;;;5090079;28;19923;-46
2022/03/02 05:08:19;;;;;;;;;;;20.10;37.40;;;;;;5090298;28;19969;-44
2022/03/02 05:10:45;;;;;;;;;;;20.10;37.40;;;;;;5080238;28;19921;-43
2022/03/02 05:13:14;;;;;;;;;;;20.10;37.30;;;;;;5101004;28;19967;-46
2022/03/02 05:15:42;;;;;;;;;;;20.10;37.30;;;;;;5096882;28;19923;-47
2022/03/02 05:18:09;;;;;;;;;;;20.10;37.30;;;;;;5094125;28;19920;-43
2022/03/02 05:20:36;;;;;;;;;;;20.10;37.40;;;;;;5093553;28;20261;-43
2022/03/02 05:23:03;;;;;;;;;;;20.10;37.30;;;;;;5094312;28;20181;-50
2022/03/02 05:25:30;;;;;;;;;;;20.10;37.30;;;;;;5076527;28;20384;-45
2022/03/02 05:27:56;;;;;;;;;;;20.10;37.30;;;;;;5096329;28;19927;-45
2022/03/02 05:30:25;;;;;;;;;;;20.10;37.30;;;;;;5095117;28;20395;-46
2022/03/02 05:32:51;;;;;;;;;;;20.10;37.30;;;;;;5096017;28;19971;-46
2022/03/02 05:35:18;;;;;;;;;;;20.10;37.30;;;;;;5083691;28;19928;-46
2022/03/02 05:37:45;;;;;;;;;;;20.10;37.40;;;;;;5088745;28;20022;-44
2022/03/02 05:40:14;;;;;;;;;;;20.10;37.30;;;;;;5087960;28;19919;-44
2022/03/02 05:42:40;;;;;;;;;;;20.10;37.30;;;;;;5086856;28;19970;-43
2022/03/02 05:45:08;;;;;;;;;;;20.10;37.30;;;;;;5088956;28;20269;-45
2022/03/02 05:47:37;;;;;;;;;;;20.10;37.40;;;;;;5087367;28;20269;-46
2022/03/02 05:50:04;;;;;;;;;;;20.10;37.30;;;;;;5088987;28;19942;-43
2022/03/02 05:52:31;;;;;;;;;;;20.10;37.90;;;;;;5088471;28;19924;-43
2022/03/02 05:54:57;;;;;;;;;;;20.10;37.40;;;;;;5086480;28;19920;-43
2022/03/02 05:57:24;;;;;;;;;;;20.10;37.40;;;;;;5087062;28;19927;-44
2022/03/02 05:59:51;;;;;;;;;;;20.10;37.40;;;;;;5087169;28;19920;-43
2022/03/02 06:02:19;;;;;;;;;;;20.10;37.40;;;;;;5085655;28;20365;-44
2022/03/02 06:04:48;;;;;;;;;;;20.10;37.40;;;;;;5085909;28;20338;-45
2022/03/02 06:07:15;;;;;;;;;;;20.10;37.40;;;;;;5102622;28;20003;-43
2022/03/02 06:09:42;;;;;;;;;;;20.10;37.50;;;;;;5087424;28;19919;-44
2022/03/02 06:12:09;;;;;;;;;;;20.10;37.50;;;;;;5090467;28;19919;-48
2022/03/02 06:14:36;;;;;;;;;;;20.10;37.50;;;;;;5108345;28;19927;-47
2022/03/02 06:17:03;;;;;;;;;;;20.10;37.50;;;;;;5089667;28;19926;-45
2022/03/02 06:19:30;;;;;;;;;;;20.20;37.60;;;;;;5090897;28;19959;-43
2022/03/02 06:21:58;;;;;;;;;;;20.10;37.50;;;;;;5090768;28;20010;-44
2022/03/02 06:24:25;;;;;;;;;;;20.10;37.50;;;;;;5109088;28;19931;-43
2022/03/02 06:26:52;;;;;;;;;;;20.10;37.50;;;;;;5086042;28;19969;-44
2022/03/02 06:29:19;;;;;;;;;;;20.20;37.60;;;;;;5091157;28;19924;-46
2022/03/02 06:31:47;;;;;;;;;;;20.10;37.50;;;;;;5108500;28;19920;-43
2022/03/02 06:34:14;;;;;;;;;;;20.10;37.50;;;;;;5088242;28;20291;-46
2022/03/02 06:36:41;;;;;;;;;;;20.10;37.50;;;;;;5086851;28;19931;-46
2022/03/02 06:39:09;;;;;;;;;;;20.10;37.50;;;;;;5089213;28;19924;-45
2022/03/02 06:41:38;;;;;;;;;;;20.10;37.50;;;;;;5086030;28;20349;-47
2022/03/02 06:44:05;;;;;;;;;;;20.10;37.50;;;;;;5090040;28;19939;-45
2022/03/02 06:46:33;;;;;;;;;;;20.10;37.50;;;;;;5086335;28;20267;-45
2022/03/02 06:49:02;;;;;;;;;;;20.10;37.50;;;;;;5087994;28;20002;-49
2022/03/02 06:51:29;;;;;;;;;;;20.10;37.50;;;;;;5107490;28;19919;-43
2022/03/02 06:53:56;;;;;;;;;;;20.10;37.60;;;;;;5090067;28;19951;-50
2022/03/02 06:56:24;;;;;;;;;;;20.10;37.50;;;;;;5092386;28;19919;-47
2022/03/02 06:58:51;;;;;;;;;;;20.10;37.50;;;;;;5080422;28;19956;-44
2022/03/02 07:01:20;;;;;;;;;;;20.10;37.50;;;;;;5093610;28;19942;-46
2022/03/02 07:03:50;;;;;;;;;;;20.10;37.50;;;;;;5109516;28;19920;-44
2022/03/02 07:06:17;;;;;;;;;;;20.10;37.60;;;;;;5098258;28;19974;-43
2022/03/02 07:08:55;;;;;;;;;;;20.10;37.60;;;;;;5089323;28;19927;-47
2022/03/02 07:11:21;;;;;;;;;;;20.10;37.60;;;;;;5093292;28;20003;-45
2022/03/02 07:13:52;;;;;;;;;;;20.10;37.60;;;;;;5111750;28;19926;-45
2022/03/02 07:16:21;;;;;;;;;;;20.10;37.60;;;;;;5109909;28;20345;-43
2022/03/02 07:18:48;;;;;;;;;;;20.10;37.60;;;;;;5111479;28;20384;-43
2022/03/02 07:21:15;;;;;;;;;;;20.10;37.60;;;;;;5111078;28;19965;-47
2022/03/02 07:23:42;;;;;;;;;;;20.10;37.60;;;;;;5105514;28;19920;-52
2022/03/02 07:26:09;;;;;;;;;;;20.10;37.60;;;;;;5088340;28;20440;-48
2022/03/02 07:28:38;;;;;;;;;;;20.10;37.10;;;;;;5090695;28;19970;-54
2022/03/02 07:31:06;;;;;;;;;;;20.10;36.60;;;;;;5091553;28;19928;-55
2022/03/02 07:33:33;;;;;;;;;;;20.10;36.10;;;;;;5110017;28;20079;-53
2022/03/02 07:36:00;;;;;;;;;;;20.10;35.60;;;;;;5090282;28;20367;-52
2022/03/02 07:38:27;;;;;;;;;;;20.10;35.20;;;;;;5084991;28;20067;-52
2022/03/02 07:40:53;;;;;;;;;;;20.10;35.10;;;;;;5081021;28;19927;-56
2022/03/02 07:43:20;;;;;;;;;;;20.00;34.80;;;;;;5088397;28;19920;-50
2022/03/02 07:45:47;;;;;;;;;;;20.00;34.70;;;;;;5086781;28;20364;-56
2022/03/02 07:48:15;;;;;;;;;;;20.00;34.70;;;;;;5107640;28;19926;-51
2022/03/02 07:50:42;;;;;;;;;;;20.00;34.70;;;;;;5082031;27;19943;-54
2022/03/02 07:53:09;;;;;;;;;;;20.00;34.70;;;;;;5104322;27;19920;-55
2022/03/02 07:55:37;;;;;;;;;;;20.00;34.60;;;;;;5089207;28;19924;-48
2022/03/02 07:58:04;;;;;;;;;;;19.90;34.30;;;;;;5105341;27;19926;-50
2022/03/02 08:00:31;;;;;;;;;;;19.90;34.20;;;;;;5085139;28;20229;-58
2022/03/02 08:02:58;;;;;;;;;;;19.90;34.10;;;;;;5086114;28;20012;-54
2022/03/02 08:05:27;;;;;;;;;;;19.90;34.00;;;;;;5106028;27;20404;-54
2022/03/02 08:07:53;;;;;;;;;;;19.90;33.90;;;;;;5079755;28;19964;-54
2022/03/02 08:10:20;;;;;;;;;;;19.90;33.80;;;;;;5085166;28;19992;-56
2022/03/02 08:12:47;;;;;;;;;;;19.90;33.80;;;;;;5084273;28;19963;-56
2022/03/02 08:15:14;;;;;;;;;;;19.90;33.80;;;;;;5081775;28;20080;-54
2022/03/02 08:17:41;;;;;;;;;;;19.90;33.90;;;;;;5085170;28;19954;-53
2022/03/02 08:20:09;;;;;;;;;;;19.90;34.00;;;;;;5111769;27;19973;-57
2022/03/02 08:22:38;;;;;;;;;;;19.90;34.10;;;;;;5106234;28;19930;-55
2022/03/02 08:25:07;;;;;;;;;;;19.90;34.10;;;;;;5084996;28;19919;-56
2022/03/02 08:27:34;;;;;;;;;;;19.90;33.90;;;;;;5085175;28;19943;-52
2022/03/02 08:30:01;;;;;;;;;;;19.80;33.80;;;;;;5086827;28;20281;-55
2022/03/02 08:32:28;;;;;;;;;;;19.80;33.80;;;;;;5084152;28;20005;-53
2022/03/02 08:34:55;;;;;;;;;;;19.80;33.80;;;;;;5082100;28;20010;-51
2022/03/02 08:37:22;;;;;;;;;;;19.80;33.80;;;;;;5102119;28;20349;-51
2022/03/02 08:39:50;;;;;;;;;;;19.80;33.80;;;;;;5111591;27;19928;-57
2022/03/02 08:42:17;;;;;;;;;;;19.80;33.80;;;;;;5083881;28;19957;-56
2022/03/02 08:44:45;;;;;;;;;;;19.80;33.80;;;;;;5086859;28;19919;-52
2022/03/02 08:47:12;;;;;;;;;;;19.80;33.70;;;;;;5084327;28;19919;-55
2022/03/02 08:49:39;;;;;;;;;;;19.80;33.70;;;;;;5086371;28;19920;-54
2022/03/02 08:52:06;;;;;;;;;;;19.80;33.60;;;;;;5084074;28;20055;-53
2022/03/02 08:54:34;;;;;;;;;;;19.80;33.70;;;;;;5082366;28;19932;-48
2022/03/02 08:57:02;;;;;;;;;;;19.80;33.60;;;;;;5102927;28;20383;-53
2022/03/02 08:59:28;;;;;;;;;;;19.80;33.70;;;;;;5101688;28;19993;-55
2022/03/02 09:01:55;;;;;;;;;;;19.80;33.70;;;;;;5080069;28;19955;-57
2022/03/02 09:04:22;;;;;;;;;;;19.80;33.80;;;;;;5083110;28;19983;-58
2022/03/02 09:06:49;;;;;;;;;;;19.80;33.70;;;;;;5102805;28;20351;-55
2022/03/02 09:09:16;;;;;;;;;;;19.80;33.50;;;;;;5085697;28;19923;-53
2022/03/02 09:11:43;;;;;;;;;;;19.70;33.20;;;;;;5085606;28;19931;-54
2022/03/02 09:14:12;;;;;;;;;;;19.70;33.10;;;;;;5108273;27;19923;-55
2022/03/02 09:16:39;;;;;;;;;;;19.70;32.90;;;;;;5104045;28;20018;-59
2022/03/02 09:19:07;;;;;;;;;;;19.70;32.70;;;;;;5103994;28;19928;-56
2022/03/02 09:21:34;;;;;;;;;;;19.70;32.60;;;;;;5083034;28;19928;-53
2022/03/02 09:24:00;;;;;;;;;;;19.70;32.60;;;;;;5084917;28;20361;-55
2022/03/02 09:26:27;;;;;;;;;;;19.70;32.50;;;;;;5103341;28;20218;-55
2022/03/02 09:28:54;;;;;;;;;;;19.70;32.50;;;;;;5084877;28;20330;-58
2022/03/02 09:31:22;;;;;;;;;;;19.60;32.30;;;;;;5101925;28;19930;-55
2022/03/02 09:33:50;;;;;;;;;;;19.60;32.30;;;;;;5080223;28;19920;-60
2022/03/02 09:36:19;;;;;;;;;;;19.60;32.60;;;;;;5079489;28;20017;-52
2022/03/02 09:38:47;;;;;;;;;;;19.60;32.80;;;;;;5083547;28;19936;-54
2022/03/02 09:41:14;;;;;;;;;;;19.60;33.10;;;;;;5082560;28;20293;-55
2022/03/02 09:43:42;;;;;;;;;;;19.60;33.20;;;;;;5082164;28;19928;-57
2022/03/02 09:46:10;;;;;;;;;;;19.60;33.30;;;;;;5076827;28;20380;-53
2022/03/02 09:48:41;;;;;;;;;;;19.60;33.40;;;;;;5079934;28;20023;-56
2022/03/02 09:51:08;;;;;;;;;;;19.70;33.40;;;;;;5099118;28;19923;-54
2022/03/02 09:53:35;;;;;;;;;;;19.60;33.40;;;;;;5083407;28;19962;-53
2022/03/02 09:56:04;;;;;;;;;;;19.70;33.50;;;;;;5079305;28;19923;-58
2022/03/02 09:58:31;;;;;;;;;;;19.70;33.50;;;;;;5081185;27;20324;-52
2022/03/02 10:00:58;;;;;;;;;;;19.60;33.50;;;;;;5082242;28;19962;-54
2022/03/02 10:03:26;;;;;;;;;;;19.70;33.50;;;;;;5083902;28;19930;-51
2022/03/02 10:05:54;;;;;;;;;;;19.70;33.40;;;;;;5077961;28;19966;-53
2022/03/02 10:08:21;;;;;;;;;;;19.70;33.30;;;;;;5103532;28;20032;-51
2022/03/02 10:10:48;;;;;;;;;;;19.70;33.20;;;;;;5079957;28;19920;-52
2022/03/02 10:13:16;;;;;;;;;;;19.70;33.30;;;;;;5099023;28;19936;-54
2022/03/02 10:15:43;;;;;;;;;;;19.60;33.40;;;;;;5083585;27;19927;-49
2022/03/02 10:18:11;;;;;;;;;;;19.70;33.50;;;;;;5083690;28;19924;-55
2022/03/02 10:20:39;;;;;;;;;;;19.70;33.50;;;;;;5083112;28;19928;-57
2022/03/02 10:23:30;;;;;;;;;;;19.70;33.50;;;;;;5085135;28;20018;-55
2022/03/02 10:26:05;;;;;;;;;;;19.70;33.50;;;;;;5073705;28;19950;-54
2022/03/02 10:28:32;;;;;;;;;;;19.70;33.60;;;;;;5100091;28;19920;-50
2022/03/02 10:31:19;;;;;;;;;;;19.70;33.60;;;;;;5079041;28;20364;-51
2022/03/02 10:33:46;;;;;;;;;;;19.70;33.60;;;;;;5081682;28;19919;-53
2022/03/02 10:36:13;;;;;;;;;;;19.70;33.60;;;;;;5105980;27;19920;-53
2022/03/02 10:38:45;;;;;;;;;;;19.70;33.60;;;;;;5080195;28;19926;-49
2022/03/02 10:41:13;;;;;;;;;;;19.70;33.60;;;;;;5081267;28;20258;-47
2022/03/02 10:43:42;;;;;;;;;;;19.70;33.50;;;;;;5077616;28;22778;-54
2022/03/02 10:46:10;;;;;;;;;;;19.70;33.50;;;;;;5079666;28;20377;-50
2022/03/02 10:48:38;;;;;;;;;;;19.70;33.40;;;;;;5079190;28;19924;-57
2022/03/02 10:51:06;;;;;;;;;;;19.70;33.40;;;;;;5079581;28;20349;-53
2022/03/02 10:53:33;;;;;;;;;;;19.70;33.40;;;;;;5075307;28;20325;-56
2022/03/02 10:56:00;;;;;;;;;;;19.70;33.40;;;;;;5081956;28;20400;-44
2022/03/02 10:58:28;;;;;;;;;;;19.70;33.40;;;;;;5111209;27;19942;-45
2022/03/02 11:00:55;;;;;;;;;;;19.70;33.40;;;;;;5082556;28;20341;-51
2022/03/02 11:03:23;;;;;;;;;;;19.70;33.60;;;;;;5078556;28;19923;-43
2022/03/02 11:05:54;;;;;;;;;;;19.70;33.80;;;;;;5078545;28;19975;-46
2022/03/02 11:08:20;;;;;;;;;;;19.70;33.80;;;;;;5085343;28;19961;-47
2022/03/02 11:10:48;;;;;;;;;;;19.70;33.90;;;;;;5083703;28;20920;-48
2022/03/02 11:13:15;;;;;;;;;;;19.80;34.00;;;;;;5087349;28;19927;-48
2022/03/02 11:15:50;;;;;;;;;;;19.80;34.20;;;;;;5104730;28;20023;-46
2022/03/02 11:18:17;;;;;;;;;;;19.80;34.20;;;;;;5084888;28;19946;-45
2022/03/02 11:20:54;;;;;;;;;;;19.80;34.20;;;;;;5108746;28;20463;-46
2022/03/02 11:23:23;;;;;;;;;;;19.80;34.30;;;;;;5080148;28;19920;-47
2022/03/02 11:25:51;;;;;;;;;;;19.90;34.40;;;;;;5078792;28;20013;-45
2022/03/02 11:28:18;;;;;;;;;;;19.80;34.40;;;;;;5082106;28;19923;-49
2022/03/02 11:30:46;;;;;;;;;;;19.90;34.50;;;;;;5083159;28;19931;-43
2022/03/02 11:33:15;;;;;;;;;;;19.90;34.50;;;;;;5081984;28;20327;-45
2022/03/02 11:35:42;;;;;;;;;;;19.90;34.60;;;;;;5101008;28;19932;-45
2022/03/02 11:38:10;;;;;;;;;;;19.90;34.60;;;;;;5097136;28;19938;-45
2022/03/02 11:40:38;;;;;;;;;;;19.90;34.70;;;;;;5084002;28;20256;-49
2022/03/02 11:43:12;;;;;;;;;;;19.90;34.70;;;;;;5086311;28;20115;-48
2022/03/02 11:45:39;;;;;;;;;;;20.00;34.80;;;;;;5107611;28;19920;-48
2022/03/02 11:48:09;;;;;;;;;;;20.00;34.90;;;;;;5106684;28;19924;-48
2022/03/02 11:50:38;;;;;;;;;;;20.00;34.90;;;;;;5092267;28;19953;-43
2022/03/02 11:53:08;;;;;;;;;;;20.00;34.90;;;;;;5090897;28;19919;-47
2022/03/02 11:55:34;;;;;;;;;;;20.00;35.00;;;;;;5088001;28;20422;-48
2022/03/02 11:58:01;;;;;;;;;;;20.00;35.00;;;;;;5092962;28;19983;-46
2022/03/02 12:00:28;;;;;;;;;;;20.00;35.00;;;;;;5091446;28;19977;-47
2022/03/02 12:02:56;;;;;;;;;;;20.00;35.00;;;;;;5093746;28;19927;-45
2022/03/02 12:05:24;;;;;;;;;;;20.00;35.00;;;;;;5087343;28;20014;-48
2022/03/02 12:07:53;;;;;;;;;;;20.00;35.10;;;;;;5093163;28;19926;-45
2022/03/02 12:10:21;;;;;;;;;;;20.00;35.10;;;;;;5084009;28;19920;-44
2022/03/02 12:12:48;;;;;;;;;;;20.00;35.20;;;;;;5089096;28;19930;-43
2022/03/02 12:15:15;;;;;;;;;;;20.00;35.20;;;;;;5108963;28;19930;-43
2022/03/02 12:17:42;;;;;;;;;;;20.10;35.30;;;;;;5111286;28;19924;-46
2022/03/02 12:20:09;;;;;;;;;;;20.10;35.40;;;;;;5093239;28;20181;-44
2022/03/02 12:22:37;;;;;;;;;;;20.10;35.50;;;;;;5094660;28;19924;-45
2022/03/02 12:25:08;;;;;;;;;;;20.10;35.60;;;;;;5089565;28;20007;-43
2022/03/02 12:27:35;;;;;;;;;;;20.10;35.60;;;;;;5112460;27;19967;-46
2022/03/02 12:30:04;;;;;;;;;;;20.10;35.70;;;;;;5089656;28;19920;-47
2022/03/02 12:32:31;;;;;;;;;;;20.10;35.80;;;;;;5110076;28;19927;-46
2022/03/02 12:34:59;;;;;;;;;;;20.10;35.80;;;;;;5108670;28;19924;-48
2022/03/02 12:37:26;;;;;;;;;;;20.10;35.80;;;;;;5087146;28;19960;-48
2022/03/02 12:39:53;;;;;;;;;;;20.20;36.00;;;;;;5089763;28;19955;-52
2022/03/02 12:42:21;;;;;;;;;;;20.20;36.00;;;;;;5089577;28;19923;-45
2022/03/02 12:44:49;;;;;;;;;;;20.10;36.00;;;;;;5088109;28;20349;-50
2022/03/02 12:47:20;;;;;;;;;;;20.20;36.20;;;;;;5088443;28;19920;-44
2022/03/02 12:49:51;;;;;;;;;;;20.20;36.30;;;;;;5083230;28;19939;-45
2022/03/02 12:52:18;;;;;;;;;;;20.20;36.30;;;;;;5078772;28;20059;-45
2022/03/02 12:54:44;;;;;;;;;;;20.20;36.40;;;;;;5086382;28;20314;-44
2022/03/02 12:57:11;;;;;;;;;;;20.20;36.40;;;;;;5082104;28;19983;-46
2022/03/02 12:59:39;;;;;;;;;;;20.20;36.40;;;;;;5084051;28;19919;-44
2022/03/02 13:02:07;;;;;;;;;;;20.20;36.50;;;;;;5085932;28;20066;-44
2022/03/02 13:04:36;;;;;;;;;;;20.20;36.50;;;;;;5084303;28;20014;-50
2022/03/02 13:07:06;;;;;;;;;;;20.20;36.50;;;;;;5107764;28;19959;-46
2022/03/02 13:09:32;;;;;;;;;;;20.20;36.50;;;;;;5103828;28;19977;-45
2022/03/02 13:12:14;;;;;;;;;;;20.30;36.70;;;;;;5085529;28;20007;-48
2022/03/02 13:14:42;;;;;;;;;;;20.30;36.70;;;;;;5101815;28;19920;-45
2022/03/02 13:17:15;;;;;;;;;;;20.30;36.70;;;;;;5083067;28;19923;-44
2022/03/02 13:19:45;;;;;;;;;;;20.30;36.70;;;;;;5084096;28;20364;-43
2022/03/02 13:22:17;;;;;;;;;;;20.30;36.70;;;;;;5086955;28;19924;-51
2022/03/02 13:24:45;;;;;;;;;;;20.30;36.70;;;;;;5087456;28;19930;-49
2022/03/02 13:27:16;;;;;;;;;;;20.30;36.80;;;;;;5100566;28;19919;-52
2022/03/02 13:29:51;;;;;;;;;;;20.30;36.80;;;;;;5097315;28;20380;-58
2022/03/02 13:32:18;;;;;;;;;;;20.30;36.80;;;;;;5083566;28;20347;-51
2022/03/02 13:35:00;;;;;;;;;;;20.30;36.70;;;;;;5080520;28;19924;-51
2022/03/02 13:37:35;;;;;;;;;;;20.30;36.50;;;;;;5080304;28;19920;-53
2022/03/02 13:40:02;;;;;;;;;;;20.30;36.20;;;;;;5083572;28;20348;-54
2022/03/02 13:42:29;;;;;;;;;;;20.30;36.10;;;;;;5110468;27;19974;-52
2022/03/02 13:45:08;;;;;;;;;;;20.30;35.90;;;;;;5104894;28;20060;-55
2022/03/02 13:47:36;;;;;;;;;;;20.30;35.70;;;;;;5078180;28;19928;-58
2022/03/02 13:50:16;;;;;;;;;;;20.30;35.50;;;;;;5082765;28;19934;-53
2022/03/02 13:52:53;;;;;;;;;;;20.20;35.30;;;;;;5082022;28;19932;-59
2022/03/02 13:55:34;;;;;;;;;;;20.20;35.30;;;;;;5083017;28;19924;-54
2022/03/02 13:58:19;;;;;;;;;;;20.20;35.10;;;;;;5101691;28;19939;-53
2022/03/02 14:00:47;;;;;;;;;;;20.20;35.10;;;;;;5079645;28;19941;-50
2022/03/02 14:03:25;;;;;;;;;;;20.20;34.90;;;;;;5085611;28;20499;-54
2022/03/02 14:05:52;;;;;;;;;;;20.20;34.90;;;;;;5099647;28;19991;-56
2022/03/02 14:08:19;;;;;;;;;;;20.20;34.90;;;;;;5080470;28;19932;-58
2022/03/02 14:10:45;;;;;;;;;;;20.20;34.90;;;;;;5102235;28;19919;-58
2022/03/02 14:13:12;;;;;;;;;;;20.20;34.90;;;;;;5081935;28;19951;-54
2022/03/02 14:15:39;;;;;;;;;;;20.20;34.90;;;;;;5083706;28;20014;-52
2022/03/02 14:18:19;;;;;;;;;;;20.20;34.80;;;;;;5084175;28;19923;-57
2022/03/02 14:20:46;;;;;;;;;;;20.20;34.70;;;;;;5083083;28;19920;-57